White Settlement, Texas
Current Conditions -  °F | °C
As of 2:52 AM on Wednesday 26 Nov 2014 (Local Time) from KNFW Reporting Station
Clear Clear  
Wind Chill: 50°   Ceiling: Unl
Heat Index: 50°   Visibility: 10mi
Dew Point: 27°   Wind: 12mph
Humidity: 41%   Direction: 190°S
Pressure: 30.1"   Gusts: NA
Location:  32.7792°N, 97.5244°W
Report Text: KNFW 260852Z AUTO 19010KT 10SM CLR 10/M03 A3010 RMK AO2 SLP176 T01001028 55015 CHINO N $
Loading
Personal Weather Stations






























Interactive Weather Map New forecast layout! Learn more

10-Day Weather Forecast

Advertisements
Track Severe Weather on mobile